Time;durP1;ratioP1;P1;durP2;ratioP2;P2;SDS_P1;SDS_P2;PMS_P1;PMS_P2;Temp;Humidity;BMP_temperature;BMP_pressure;BME280_temperature;BME280_humidity;BME280_pressure;Samples;Min_cycle;Max_cycle;Signal;HPM_P1;HPM_P2
2021/04/10 00:03:00;;;;;;;12.27;10.87;;;;;8.60;100614.00;;;;9693817;30;20208;-78
2021/04/10 00:08:03;;;;;;;15.23;11.17;;;;;8.40;100617.00;;;;9693954;30;20225;-78
2021/04/10 00:13:04;;;;;;;14.03;10.93;;;;;8.20;100618.00;;;;9693636;30;20227;-78
2021/04/10 00:18:05;;;;;;;13.43;11.03;;;;;8.10;100618.00;;;;9678271;30;20212;-78
2021/04/10 00:23:07;;;;;;;15.00;11.53;;;;;8.00;100611.00;;;;9692858;30;20345;-78
2021/04/10 00:28:08;;;;;;;20.13;10.97;;;;;8.00;100608.00;;;;9678935;30;20235;-78
2021/04/10 00:33:09;;;;;;;17.53;11.30;;;;;8.00;100606.00;;;;9677140;30;20236;-77
2021/04/10 00:38:11;;;;;;;14.67;11.70;;;;;8.00;100611.00;;;;9692463;30;20195;-78
2021/04/10 00:43:12;;;;;;;15.10;12.50;;;;;8.10;100612.00;;;;9685084;30;20239;-77
2021/04/10 00:48:14;;;;;;;14.53;11.27;;;;;8.10;100606.00;;;;9656341;30;20205;-77
2021/04/10 00:53:17;;;;;;;16.33;11.30;;;;;8.10;100607.00;;;;9651386;30;20274;-77
2021/04/10 00:58:18;;;;;;;15.03;11.70;;;;;8.10;100610.00;;;;9670550;30;20212;-78
2021/04/10 01:03:21;;;;;;;17.07;12.47;;;;;8.10;100608.00;;;;9655916;30;20271;-78
2021/04/10 01:08:23;;;;;;;16.87;11.67;;;;;8.20;100605.00;;;;9656608;30;20208;-78
2021/04/10 01:13:41;;;;;;;17.40;12.23;;;;;8.20;100597.00;;;;9655710;30;20276;-77
2021/04/10 01:18:43;;;;;;;21.63;12.70;;;;;8.20;100598.00;;;;9655474;30;20201;-77
2021/04/10 01:24:20;;;;;;;19.17;13.23;;;;;8.10;100598.00;;;;9641857;30;20259;-77
2021/04/10 01:29:23;;;;;;;18.93;12.73;;;;;7.90;100616.00;;;;9640308;30;20289;-77
2021/04/10 01:34:32;;;;;;;19.40;13.87;;;;;7.60;100632.00;;;;9640289;30;20309;-77
2021/04/10 01:39:36;;;;;;;22.63;14.37;;;;;7.50;100623.00;;;;9668973;30;20219;-78
2021/04/10 01:44:41;;;;;;;21.27;14.57;;;;;7.40;100620.00;;;;9640230;30;20216;-78
2021/04/10 01:49:44;;;;;;;21.40;14.93;;;;;7.30;100641.00;;;;9626995;30;20204;-77
2021/04/10 01:54:47;;;;;;;21.50;13.03;;;;;7.20;100655.00;;;;9654444;30;20255;-77
2021/04/10 01:59:50;;;;;;;21.97;14.07;;;;;7.20;100649.00;;;;9655215;30;20303;-77
2021/04/10 02:05:05;;;;;;;18.53;13.03;;;;;7.20;100655.00;;;;9627580;30;20209;-77
2021/04/10 02:10:07;;;;;;;18.43;13.30;;;;;7.20;100648.00;;;;9654666;30;20215;-77
2021/04/10 02:15:24;;;;;;;19.83;13.40;;;;;7.20;100655.00;;;;9643818;30;20235;-78
2021/04/10 02:20:27;;;;;;;18.97;12.87;;;;;7.30;100660.00;;;;9655117;30;20299;-77
2021/04/10 02:25:29;;;;;;;19.13;13.00;;;;;7.30;100655.00;;;;9653304;30;20251;-78
2021/04/10 02:30:31;;;;;;;19.60;12.97;;;;;7.20;100656.00;;;;9639880;30;20216;-78
2021/04/10 02:35:49;;;;;;;54.13;24.43;;;;;7.30;100661.00;;;;9653490;30;20228;-78
2021/04/10 02:41:20;;;;;;;17.43;12.67;;;;;7.30;100656.00;;;;9639017;30;20215;-77
2021/04/10 02:46:26;;;;;;;17.57;13.37;;;;;7.40;100672.00;;;;9640837;30;20205;-78
2021/04/10 02:51:34;;;;;;;19.53;13.73;;;;;7.40;100675.00;;;;9672745;30;20207;-78
2021/04/10 02:56:41;;;;;;;23.07;14.57;;;;;7.40;100677.00;;;;9667175;30;20228;-78
2021/04/10 03:01:45;;;;;;;22.07;14.30;;;;;7.50;100678.00;;;;9682697;30;20733;-78
2021/04/10 03:06:48;;;;;;;23.13;14.83;;;;;7.40;100671.00;;;;9640521;30;20208;-78
2021/04/10 03:11:50;;;;;;;23.50;15.80;;;;;7.40;100685.00;;;;9697716;30;20208;-78
2021/04/10 03:16:54;;;;;;;23.10;15.70;;;;;7.40;100685.00;;;;9690707;30;20298;-78
2021/04/10 03:21:57;;;;;;;25.70;17.73;;;;;7.40;100689.00;;;;9718496;30;20203;-78
2021/04/10 03:27:01;;;;;;;26.20;16.53;;;;;7.40;100678.00;;;;9718891;30;20234;-78
2021/04/10 03:32:09;;;;;;;27.70;17.40;;;;;7.40;100676.00;;;;9689559;30;20259;-78
2021/04/10 03:37:15;;;;;;;32.43;18.10;;;;;7.30;100682.00;;;;9703402;30;20226;-78
2021/04/10 03:42:21;;;;;;;30.33;20.30;;;;;7.30;100689.00;;;;9702935;30;20282;-78
2021/04/10 03:47:24;;;;;;;35.50;21.17;;;;;7.20;100692.00;;;;9695302;30;20610;-78
2021/04/10 03:52:25;;;;;;;37.37;23.63;;;;;7.20;100701.00;;;;9639254;30;20224;-78
2021/04/10 03:57:28;;;;;;;41.67;23.80;;;;;7.10;100702.00;;;;9654093;30;20603;-78
2021/04/10 04:02:30;;;;;;;43.50;25.00;;;;;7.10;100703.00;;;;9682225;30;20200;-78
2021/04/10 04:07:32;;;;;;;39.17;25.30;;;;;7.10;100702.00;;;;9696802;30;20232;-78
2021/04/10 04:12:34;;;;;;;40.90;24.87;;;;;7.10;100711.00;;;;9652995;30;20224;-78
2021/04/10 04:17:35;;;;;;;35.93;23.40;;;;;7.00;100715.00;;;;9653607;30;20974;-78
2021/04/10 04:22:37;;;;;;;42.40;25.33;;;;;7.00;100696.00;;;;9695338;30;20654;-78
2021/04/10 04:27:38;;;;;;;40.37;24.37;;;;;7.00;100711.00;;;;9668215;30;20228;-78
2021/04/10 04:32:40;;;;;;;33.80;23.43;;;;;7.00;100714.00;;;;9695331;30;20227;-78
2021/04/10 04:37:41;;;;;;;39.37;24.97;;;;;7.00;100710.00;;;;9681462;30;20219;-78
2021/04/10 04:42:43;;;;;;;36.57;23.37;;;;;7.00;100722.00;;;;9716835;30;20203;-78
2021/04/10 04:47:44;;;;;;;35.40;23.23;;;;;7.00;100727.00;;;;9687985;30;20200;-78
2021/04/10 04:52:46;;;;;;;39.27;24.70;;;;;7.00;100733.00;;;;9702303;30;20227;-78
2021/04/10 04:57:47;;;;;;;38.90;24.20;;;;;7.00;100740.00;;;;9687057;30;20211;-78
2021/04/10 05:02:49;;;;;;;38.33;22.90;;;;;7.00;100744.00;;;;9701411;30;20199;-78
2021/04/10 05:07:52;;;;;;;45.23;24.27;;;;;7.00;100754.00;;;;9687669;30;20222;-78
2021/04/10 05:12:53;;;;;;;34.97;23.43;;;;;7.10;100764.00;;;;9716374;30;20624;-78
2021/04/10 05:17:55;;;;;;;37.07;23.03;;;;;7.10;100769.00;;;;9687490;30;20565;-78
2021/04/10 05:22:56;;;;;;;37.20;23.60;;;;;7.10;100769.00;;;;9701973;30;20206;-78
2021/04/10 05:27:58;;;;;;;41.07;24.43;;;;;7.20;100774.00;;;;9714468;30;20306;-78
2021/04/10 05:32:59;;;;;;;38.53;22.53;;;;;7.20;100775.00;;;;9715343;30;20263;-78
2021/04/10 05:38:03;;;;;;;38.57;23.53;;;;;7.30;100780.00;;;;9685971;30;20204;-78
2021/04/10 05:43:04;;;;;;;35.63;24.13;;;;;7.30;100783.00;;;;9687012;30;20609;-78
2021/04/10 05:48:06;;;;;;;37.27;21.13;;;;;7.30;100775.00;;;;9689145;30;20211;-78
2021/04/10 05:53:08;;;;;;;37.57;21.50;;;;;7.40;100780.00;;;;9689721;30;20223;-78
2021/04/10 05:58:09;;;;;;;37.60;21.70;;;;;7.40;100790.00;;;;9690705;30;20220;-78
2021/04/10 06:03:10;;;;;;;40.07;23.20;;;;;7.50;100800.00;;;;9705529;30;20250;-78
2021/04/10 06:08:13;;;;;;;35.37;23.10;;;;;7.50;100798.00;;;;9709556;30;20204;-78
2021/04/10 06:13:15;;;;;;;38.30;23.10;;;;;7.50;100803.00;;;;9703610;30;20228;-79
2021/04/10 06:18:16;;;;;;;42.47;23.13;;;;;7.60;100798.00;;;;9673733;30;20223;-79
2021/04/10 06:23:18;;;;;;;37.23;22.63;;;;;7.70;100813.00;;;;9695956;30;20595;-78
2021/04/10 06:28:19;;;;;;;35.80;21.60;;;;;7.80;100812.00;;;;9695794;30;20235;-78
2021/04/10 06:33:23;;;;;;;39.67;22.27;;;;;7.90;100808.00;;;;9713910;30;20227;-78
2021/04/10 06:38:24;;;;;;;36.87;22.67;;;;;8.10;100814.00;;;;9673899;30;20295;-78
2021/04/10 06:43:26;;;;;;;35.63;22.27;;;;;8.10;100809.00;;;;9643246;30;20212;-78
2021/04/10 06:48:28;;;;;;;42.97;23.50;;;;;8.20;100806.00;;;;9657249;30;20200;-78
2021/04/10 06:53:32;;;;;;;36.80;23.47;;;;;8.30;100810.00;;;;9702702;30;20230;-78
2021/04/10 06:58:47;;;;;;;37.57;23.70;;;;;8.20;100815.00;;;;9694556;30;20204;-78
2021/04/10 07:03:51;;;;;;;37.00;23.20;;;;;8.10;100816.00;;;;9694703;30;20231;-78
2021/04/10 07:08:53;;;;;;;40.83;24.03;;;;;8.10;100806.00;;;;9705539;30;20204;-78
2021/04/10 07:13:55;;;;;;;38.90;24.77;;;;;8.00;100814.00;;;;9704031;30;20223;-78
2021/04/10 07:18:56;;;;;;;41.60;23.50;;;;;7.80;100814.00;;;;9676504;30;20216;-78
2021/04/10 07:23:58;;;;;;;45.47;25.23;;;;;7.80;100813.00;;;;9702580;30;20196;-78
2021/04/10 07:28:59;;;;;;;40.13;24.37;;;;;7.90;100811.00;;;;9699035;30;20266;-78
2021/04/10 07:34:02;;;;;;;53.10;26.13;;;;;7.90;100812.00;;;;9681397;30;20232;-77
2021/04/10 07:39:03;;;;;;;53.77;26.93;;;;;7.90;100808.00;;;;9694242;30;20203;-77
2021/04/10 07:44:05;;;;;;;43.70;25.33;;;;;7.80;100819.00;;;;9679502;30;20228;-77
2021/04/10 07:49:09;;;;;;;43.67;26.10;;;;;7.70;100814.00;;;;9694313;30;20212;-77
2021/04/10 07:54:43;;;;;;;46.80;27.00;;;;;7.70;100820.00;;;;9679525;30;20228;-77
2021/04/10 07:59:53;;;;;;;44.77;26.00;;;;;7.80;100822.00;;;;9648100;30;20275;-77
2021/04/10 08:04:58;;;;;;;43.97;26.27;;;;;8.00;100822.00;;;;9642101;30;20263;-78
2021/04/10 08:10:11;;;;;;;45.40;26.23;;;;;8.10;100829.00;;;;9646559;30;20252;-78
2021/04/10 08:15:24;;;;;;;43.60;26.73;;;;;8.20;100809.00;;;;9659858;30;20220;-78
2021/04/10 08:20:28;;;;;;;51.90;29.50;;;;;8.20;100816.00;;;;9659962;30;20212;-77
2021/04/10 08:25:32;;;;;;;50.03;28.90;;;;;8.30;100811.00;;;;9680756;30;20236;-78
2021/04/10 08:30:33;;;;;;;47.80;28.33;;;;;8.40;100807.00;;;;9679391;30;20208;-77
2021/04/10 08:35:39;;;;;;;49.83;30.57;;;;;8.50;100791.00;;;;9707696;30;20223;-77
2021/04/10 08:40:41;;;;;;;52.80;33.97;;;;;8.50;100806.00;;;;9665021;30;20264;-77
2021/04/10 08:45:44;;;;;;;59.90;35.33;;;;;8.50;100790.00;;;;9694088;30;20262;-77
2021/04/10 08:50:46;;;;;;;51.13;33.50;;;;;8.50;100785.00;;;;9691180;30;20212;-77
2021/04/10 08:55:49;;;;;;;50.87;34.00;;;;;8.70;100774.00;;;;9692166;30;20689;-77
2021/04/10 09:01:29;;;;;;;55.27;35.00;;;;;8.80;100774.00;;;;9653000;30;20216;-77
2021/04/10 09:06:31;;;;;;;59.93;36.47;;;;;8.90;100780.00;;;;9643172;30;20193;-77
2021/04/10 09:11:32;;;;;;;62.37;37.20;;;;;8.90;100788.00;;;;9655883;30;20294;-77
2021/04/10 09:16:46;;;;;;;52.07;34.83;;;;;8.80;100785.00;;;;9686087;30;20211;-77
2021/04/10 09:21:53;;;;;;;49.63;33.70;;;;;8.90;100782.00;;;;9690749;30;20203;-77
2021/04/10 09:27:04;;;;;;;55.77;37.70;;;;;8.80;100789.00;;;;9704124;30;20313;-77
2021/04/10 09:32:05;;;;;;;56.37;34.97;;;;;8.80;100789.00;;;;9703091;30;20286;-77
2021/04/10 09:37:07;;;;;;;56.67;38.07;;;;;9.10;100781.00;;;;9689186;30;20219;-77
2021/04/10 09:42:08;;;;;;;55.60;36.40;;;;;9.50;100771.00;;;;9690142;30;20210;-76
2021/04/10 09:47:09;;;;;;;51.70;34.60;;;;;9.60;100768.00;;;;9675276;30;20234;-77
2021/04/10 09:52:15;;;;;;;49.67;33.33;;;;;9.50;100773.00;;;;9689560;30;20680;-77
2021/04/10 09:57:17;;;;;;;41.90;32.10;;;;;9.30;100756.00;;;;9689812;30;20214;-77
2021/04/10 10:02:27;;;;;;;56.80;39.70;;;;;9.30;100746.00;;;;9689410;30;20227;-77
2021/04/10 10:07:29;;;;;;;45.90;34.13;;;;;9.40;100742.00;;;;9695176;30;20238;-77
2021/04/10 10:12:30;;;;;;;56.53;38.97;;;;;9.90;100732.00;;;;9696353;30;20223;-77
2021/04/10 10:17:32;;;;;;;42.83;30.60;;;;;10.20;100730.00;;;;9680798;30;20203;-77
2021/04/10 10:22:33;;;;;;;36.30;27.67;;;;;10.10;100734.00;;;;9695068;30;20204;-77
2021/04/10 10:27:40;;;;;;;39.37;30.13;;;;;10.60;100728.00;;;;9709483;30;20287;-77
2021/04/10 10:32:48;;;;;;;30.57;25.93;;;;;11.00;100712.00;;;;9695000;30;20216;-77
2021/04/10 10:37:50;;;;;;;30.33;26.73;;;;;10.70;100719.00;;;;9666267;30;20238;-77
2021/04/10 10:43:12;;;;;;;30.33;25.63;;;;;10.50;100714.00;;;;9695386;30;20539;-77
2021/04/10 10:48:29;;;;;;;30.33;25.60;;;;;10.60;100707.00;;;;9666320;30;20263;-77
2021/04/10 10:53:45;;;;;;;33.60;26.53;;;;;10.60;100708.00;;;;9652079;30;20238;-77
2021/04/10 10:58:50;;;;;;;29.73;22.90;;;;;10.40;100710.00;;;;9694485;30;20215;-77
2021/04/10 11:04:02;;;;;;;26.87;21.60;;;;;10.30;100710.00;;;;9694635;30;20888;-77
2021/04/10 11:09:06;;;;;;;26.77;21.33;;;;;10.40;100700.00;;;;9679274;30;20309;-76
2021/04/10 11:14:08;;;;;;;23.20;20.70;;;;;10.50;100698.00;;;;9693119;30;20235;-77
2021/04/10 11:19:10;;;;;;;28.47;21.77;;;;;10.70;100686.00;;;;9693820;30;20597;-77
2021/04/10 11:24:13;;;;;;;29.50;23.57;;;;;10.90;100682.00;;;;9664516;30;20235;-77
2021/04/10 11:29:30;;;;;;;24.83;21.90;;;;;10.50;100677.00;;;;9694066;30;20283;-76
2021/04/10 11:34:32;;;;;;;24.93;20.03;;;;;10.40;100677.00;;;;9692725;30;20640;-77
2021/04/10 11:39:52;;;;;;;26.57;22.57;;;;;10.30;100672.00;;;;9663932;30;20349;-76
2021/04/10 11:44:57;;;;;;;28.70;23.23;;;;;10.20;100663.00;;;;9677862;30;20254;-76
2021/04/10 11:50:25;;;;;;;24.17;21.57;;;;;10.70;100658.00;;;;9663825;30;20204;-76
2021/04/10 11:55:27;;;;;;;23.97;20.77;;;;;11.00;100657.00;;;;9674653;30;20696;-76
2021/04/10 12:00:28;;;;;;;16.63;14.80;;;;;11.20;100655.00;;;;9691912;30;20262;-76
2021/04/10 12:05:35;;;;;;;15.37;13.57;;;;;11.80;100647.00;;;;9642002;30;20236;-76
2021/04/10 12:11:08;;;;;;;15.70;14.20;;;;;12.30;100626.00;;;;9642116;30;20344;-76
2021/04/10 12:16:09;;;;;;;17.50;15.03;;;;;12.60;100631.00;;;;9625712;30;20255;-76
2021/04/10 12:21:10;;;;;;;16.17;14.57;;;;;12.30;100633.00;;;;9655535;30;20208;-76
2021/04/10 12:26:11;;;;;;;17.00;15.33;;;;;11.90;100626.00;;;;9656391;30;20258;-76
2021/04/10 12:31:13;;;;;;;21.30;17.83;;;;;11.70;100622.00;;;;9655828;30;20208;-76
2021/04/10 12:36:14;;;;;;;20.60;18.43;;;;;11.70;100614.00;;;;9659579;30;20227;-76
2021/04/10 12:41:16;;;;;;;19.17;17.23;;;;;11.70;100613.00;;;;9690475;30;20542;-76
2021/04/10 12:46:19;;;;;;;20.03;17.93;;;;;11.60;100619.00;;;;9689797;30;20958;-76
2021/04/10 12:51:20;;;;;;;20.50;18.30;;;;;11.40;100611.00;;;;9690104;30;20212;-76
2021/04/10 12:56:21;;;;;;;22.00;17.67;;;;;11.30;100600.00;;;;9675399;30;20258;-76
2021/04/10 13:01:23;;;;;;;20.80;18.60;;;;;12.10;100591.00;;;;9675106;30;20250;-76
2021/04/10 13:06:25;;;;;;;19.97;17.83;;;;;12.80;100589.00;;;;9690060;30;20211;-76
2021/04/10 13:11:26;;;;;;;20.23;18.00;;;;;12.60;100576.00;;;;9704020;30;20531;-76
2021/04/10 13:16:27;;;;;;;19.80;17.33;;;;;12.40;100563.00;;;;9689302;30;20228;-76
2021/04/10 13:21:29;;;;;;;17.13;15.33;;;;;12.10;100557.00;;;;9703583;30;20214;-76
2021/04/10 13:26:30;;;;;;;20.50;16.13;;;;;11.80;100537.00;;;;9688554;30;20251;-76
2021/04/10 13:31:34;;;;;;;19.73;17.40;;;;;11.70;100536.00;;;;9680868;30;20208;-76
2021/04/10 13:36:37;;;;;;;23.17;18.53;;;;;11.60;100532.00;;;;9652955;30;20315;-76
2021/04/10 13:41:41;;;;;;;22.10;19.40;;;;;11.50;100524.00;;;;9682170;30;20300;-76
2021/04/10 13:46:42;;;;;;;22.77;19.60;;;;;11.20;100512.00;;;;9682130;30;20204;-76
2021/04/10 13:51:43;;;;;;;23.03;20.07;;;;;11.30;100510.00;;;;9681961;30;20247;-76
2021/04/10 13:56:45;;;;;;;21.93;19.30;;;;;11.00;100506.00;;;;9638855;30;20686;-76
2021/04/10 14:01:46;;;;;;;16.83;14.83;;;;;10.50;100512.00;;;;9653480;30;20204;-76
2021/04/10 14:06:47;;;;;;;15.23;13.37;;;;;10.00;100493.00;;;;9667273;30;20240;-76
2021/04/10 14:11:49;;;;;;;13.60;11.50;;;;;9.70;100501.00;;;;9673104;30;20886;-76
2021/04/10 14:16:51;;;;;;;14.47;12.43;;;;;9.50;100477.00;;;;9673363;30;20235;-76
2021/04/10 14:21:52;;;;;;;17.87;14.93;;;;;9.90;100475.00;;;;9653105;30;20212;-76
2021/04/10 14:26:54;;;;;;;20.03;16.70;;;;;9.90;100473.00;;;;9652950;30;20295;-76
2021/04/10 14:31:55;;;;;;;21.63;18.37;;;;;9.90;100461.00;;;;9638222;30;20351;-77
2021/04/10 14:36:57;;;;;;;24.47;20.67;;;;;10.00;100449.00;;;;9651998;30;20236;-76
2021/04/10 14:41:59;;;;;;;25.13;20.60;;;;;10.10;100442.00;;;;9652842;30;20232;-77
2021/04/10 14:47:02;;;;;;;26.33;21.50;;;;;10.20;100428.00;;;;9680210;30;20547;-77
2021/04/10 14:52:03;;;;;;;27.63;21.80;;;;;9.90;100414.00;;;;9685535;30;20684;-77
2021/04/10 14:57:05;;;;;;;25.93;20.57;;;;;9.60;100399.00;;;;9694475;30;20227;-77
2021/04/10 15:02:06;;;;;;;23.77;20.43;;;;;9.80;100377.00;;;;9694658;30;20564;-76
2021/04/10 15:07:08;;;;;;;27.60;21.73;;;;;9.60;100380.00;;;;9682959;30;20215;-77
2021/04/10 15:12:10;;;;;;;27.63;22.17;;;;;9.70;100372.00;;;;9692397;30;20874;-77
2021/04/10 15:17:11;;;;;;;28.83;23.43;;;;;9.90;100350.00;;;;9656819;30;20224;-77
2021/04/10 15:22:12;;;;;;;33.60;25.67;;;;;9.90;100339.00;;;;9643457;30;20212;-76
2021/04/10 15:27:14;;;;;;;33.37;26.03;;;;;9.70;100341.00;;;;9657511;30;20292;-76
2021/04/10 15:32:15;;;;;;;37.40;25.70;;;;;9.50;100325.00;;;;9678990;30;20242;-76
2021/04/10 15:37:18;;;;;;;31.10;24.83;;;;;9.50;100317.00;;;;9706510;30;20267;-77
2021/04/10 15:42:21;;;;;;;32.83;23.20;;;;;9.40;100312.00;;;;9692346;30;20246;-76
2021/04/10 15:47:22;;;;;;;28.53;23.13;;;;;9.20;100307.00;;;;9706778;30;20200;-76
2021/04/10 15:52:24;;;;;;;30.07;22.77;;;;;9.20;100298.00;;;;9706641;30;20203;-76
2021/04/10 15:57:25;;;;;;;24.03;18.80;;;;;9.10;100287.00;;;;9691888;30;20832;-76
2021/04/10 16:02:26;;;;;;;23.00;18.70;;;;;9.00;100284.00;;;;9687164;30;20258;-76
2021/04/10 16:07:27;;;;;;;23.77;19.20;;;;;9.10;100283.00;;;;9673548;30;20212;-77
2021/04/10 16:12:30;;;;;;;30.00;21.33;;;;;9.30;100278.00;;;;9687783;30;20666;-76
2021/04/10 16:17:32;;;;;;;28.80;22.30;;;;;9.40;100267.00;;;;9673088;30;20211;-76
2021/04/10 16:22:33;;;;;;;24.77;20.20;;;;;9.30;100265.00;;;;9677751;30;20262;-77
2021/04/10 16:27:34;;;;;;;26.57;20.33;;;;;9.20;100263.00;;;;9648667;30;20247;-77
2021/04/10 16:32:36;;;;;;;31.40;23.07;;;;;9.10;100252.00;;;;9663573;30;20200;-77
2021/04/10 16:37:38;;;;;;;31.37;23.57;;;;;8.90;100250.00;;;;9687218;30;20202;-77
2021/04/10 16:42:39;;;;;;;35.80;26.57;;;;;8.80;100252.00;;;;9658577;30;20235;-77
2021/04/10 16:47:42;;;;;;;31.80;23.53;;;;;8.70;100253.00;;;;9672598;30;20219;-77
2021/04/10 16:52:43;;;;;;;36.53;25.70;;;;;8.70;100237.00;;;;9691974;30;20719;-77
2021/04/10 16:57:45;;;;;;;35.23;24.77;;;;;8.70;100225.00;;;;9646196;30;20290;-77
2021/04/10 17:02:47;;;;;;;35.80;25.70;;;;;8.70;100215.00;;;;9679226;30;20219;-77
2021/04/10 17:07:49;;;;;;;36.30;26.37;;;;;8.70;100215.00;;;;9666908;30;20200;-77
2021/04/10 17:12:50;;;;;;;44.03;29.93;;;;;8.60;100219.00;;;;9650824;30;20666;-77
2021/04/10 17:17:52;;;;;;;42.77;31.13;;;;;8.60;100216.00;;;;9693559;30;20279;-78
2021/04/10 17:22:56;;;;;;;43.60;32.23;;;;;8.60;100205.00;;;;9664130;30;20263;-77
2021/04/10 17:27:58;;;;;;;39.30;28.47;;;;;8.40;100210.00;;;;9673762;30;20231;-77
2021/04/10 17:33:06;;;;;;;33.70;25.33;;;;;8.30;100202.00;;;;9691453;30;20226;-76
2021/04/10 17:38:08;;;;;;;33.13;24.00;;;;;8.20;100193.00;;;;9685118;30;20317;-78
2021/04/10 17:43:14;;;;;;;26.33;20.67;;;;;8.10;100206.00;;;;9658343;30;20552;-77
2021/04/10 17:48:16;;;;;;;22.57;20.07;;;;;8.00;100202.00;;;;9677737;30;20294;-78
2021/04/10 17:53:26;;;;;;;22.90;18.17;;;;;7.90;100207.00;;;;9649572;30;20240;-77
2021/04/10 17:58:28;;;;;;;22.77;18.67;;;;;7.70;100207.00;;;;9658736;30;20207;-77
2021/04/10 18:03:29;;;;;;;24.93;19.37;;;;;7.60;100212.00;;;;9651885;30;20220;-77
2021/04/10 18:08:31;;;;;;;24.97;19.43;;;;;7.50;100224.00;;;;9679132;30;20277;-78
2021/04/10 18:13:32;;;;;;;21.20;17.20;;;;;7.40;100243.00;;;;9659500;30;20255;-78
2021/04/10 18:18:34;;;;;;;23.40;18.57;;;;;7.30;100238.00;;;;9669587;30;20306;-77
2021/04/10 18:23:41;;;;;;;24.27;18.10;;;;;7.30;100239.00;;;;9675446;30;20196;-78
2021/04/10 18:28:44;;;;;;;22.67;17.57;;;;;7.20;100250.00;;;;9654732;30;20246;-78
2021/04/10 18:33:45;;;;;;;27.07;19.73;;;;;7.10;100227.00;;;;9678533;30;20967;-78
2021/04/10 18:38:47;;;;;;;22.80;17.13;;;;;7.10;100256.00;;;;9687783;30;20707;-77
2021/04/10 18:43:51;;;;;;;19.43;15.53;;;;;7.00;100265.00;;;;9684756;30;20270;-77
2021/04/10 18:48:52;;;;;;;22.30;17.53;;;;;6.90;100229.00;;;;9693076;30;20291;-77
2021/04/10 18:53:54;;;;;;;25.27;16.77;;;;;6.90;100274.00;;;;9664746;30;20967;-77
2021/04/10 18:58:55;;;;;;;23.00;17.77;;;;;6.90;100264.00;;;;9675641;30;20224;-77
2021/04/10 19:03:58;;;;;;;23.70;18.60;;;;;6.90;100259.00;;;;9661995;30;20951;-77
2021/04/10 19:09:00;;;;;;;26.47;20.03;;;;;6.80;100268.00;;;;9675675;30;20204;-76
2021/04/10 19:14:11;;;;;;;27.07;21.50;;;;;6.80;100261.00;;;;9677490;30;20212;-76
2021/04/10 19:19:14;;;;;;;29.30;20.97;;;;;6.80;100262.00;;;;9678607;30;20212;-76
2021/04/10 19:24:15;;;;;;;26.87;21.80;;;;;6.80;100266.00;;;;9690736;30;20212;-76
2021/04/10 19:29:17;;;;;;;27.50;21.57;;;;;6.80;100278.00;;;;9675486;30;20211;-76
2021/04/10 19:34:18;;;;;;;25.53;21.10;;;;;6.80;100278.00;;;;9667718;30;20247;-76
2021/04/10 19:39:20;;;;;;;23.97;20.57;;;;;6.80;100282.00;;;;9659855;30;20212;-76
2021/04/10 19:44:24;;;;;;;24.97;20.80;;;;;6.90;100286.00;;;;9678546;30;20196;-77
2021/04/10 19:49:25;;;;;;;25.63;21.20;;;;;6.90;100275.00;;;;9680927;30;20215;-77
2021/04/10 19:54:27;;;;;;;22.80;19.70;;;;;6.80;100281.00;;;;9674035;30;20227;-76
2021/04/10 19:59:29;;;;;;;25.47;19.80;;;;;6.80;100284.00;;;;9693797;30;20748;-76
2021/04/10 20:04:30;;;;;;;24.90;19.83;;;;;6.80;100288.00;;;;9683602;30;20558;-77
2021/04/10 20:09:32;;;;;;;55.73;35.13;;;;;6.80;100295.00;;;;9671309;30;20989;-76
2021/04/10 20:14:33;;;;;;;25.67;20.00;;;;;6.80;100299.00;;;;9663778;30;20248;-76
2021/04/10 20:19:39;;;;;;;30.43;24.87;;;;;6.80;100292.00;;;;9677663;30;20210;-76
2021/04/10 20:24:40;;;;;;;33.80;25.63;;;;;6.80;100298.00;;;;9656299;30;20711;-76
2021/04/10 20:29:42;;;;;;;31.43;25.73;;;;;6.80;100297.00;;;;9677285;30;20218;-76
2021/04/10 20:34:43;;;;;;;31.03;25.83;;;;;6.70;100296.00;;;;9680460;30;20362;-77
2021/04/10 20:39:45;;;;;;;30.83;25.83;;;;;6.70;100299.00;;;;9655359;30;20210;-77
2021/04/10 20:44:46;;;;;;;30.23;24.53;;;;;6.70;100297.00;;;;9656475;30;20199;-77
2021/04/10 20:49:49;;;;;;;35.83;27.30;;;;;6.70;100292.00;;;;9667555;30;20230;-78
2021/04/10 20:54:50;;;;;;;37.67;28.27;;;;;6.70;100303.00;;;;9685526;30;20298;-76
2021/04/10 20:59:52;;;;;;;37.73;27.97;;;;;6.60;100295.00;;;;9675525;30;20212;-76
2021/04/10 21:04:58;;;;;;;35.67;28.30;;;;;6.60;100315.00;;;;9670025;30;20568;-76
2021/04/10 21:09:59;;;;;;;33.47;25.77;;;;;6.60;100297.00;;;;9664978;30;20196;-76
2021/04/10 21:15:04;;;;;;;29.87;24.43;;;;;6.60;100296.00;;;;9673201;30;20224;-76
2021/04/10 21:20:06;;;;;;;26.63;22.67;;;;;6.50;100296.00;;;;9679966;30;20797;-77
2021/04/10 21:25:08;;;;;;;30.70;25.97;;;;;6.50;100298.00;;;;9672661;30;20306;-76
2021/04/10 21:30:10;;;;;;;32.40;24.13;;;;;6.40;100307.00;;;;9671032;30;20223;-76
2021/04/10 21:35:14;;;;;;;29.57;24.57;;;;;6.40;100306.00;;;;9684569;30;20232;-77
2021/04/10 21:40:17;;;;;;;28.77;23.70;;;;;6.40;100304.00;;;;9677099;30;20759;-77
2021/04/10 21:45:18;;;;;;;30.63;24.97;;;;;6.40;100307.00;;;;9698005;30;20200;-77
2021/04/10 21:50:20;;;;;;;37.50;29.13;;;;;6.40;100306.00;;;;9694945;30;20567;-77
2021/04/10 21:55:21;;;;;;;28.90;25.73;;;;;6.30;100317.00;;;;9670876;30;20247;-77
2021/04/10 22:00:36;;;;;;;29.23;24.77;;;;;6.30;100301.00;;;;9672097;30;20208;-77
2021/04/10 22:05:38;;;;;;;29.43;23.03;;;;;6.20;100310.00;;;;9672119;30;20757;-77
2021/04/10 22:10:40;;;;;;;24.40;21.27;;;;;6.20;100320.00;;;;9678326;30;20593;-77
2021/04/10 22:15:41;;;;;;;27.57;21.53;;;;;6.10;100333.00;;;;9636856;30;20223;-78
2021/04/10 22:20:43;;;;;;;29.23;24.60;;;;;6.00;100335.00;;;;9712332;30;20195;-78
2021/04/10 22:25:45;;;;;;;22.43;19.97;;;;;6.00;100336.00;;;;9699410;30;20278;-77
2021/04/10 22:30:46;;;;;;;25.73;20.10;;;;;5.90;100345.00;;;;9698545;30;20299;-78
2021/04/10 22:35:47;;;;;;;15.23;13.37;;;;;5.80;100324.00;;;;9685458;30;20764;-78
2021/04/10 22:40:49;;;;;;;18.50;15.00;;;;;5.60;100331.00;;;;9712403;30;20677;-78
2021/04/10 22:45:52;;;;;;;19.70;16.90;;;;;5.50;100337.00;;;;9677125;30;20200;-78
2021/04/10 22:50:54;;;;;;;23.93;17.67;;;;;5.50;100340.00;;;;9660809;30;20208;-77
2021/04/10 22:55:55;;;;;;;21.33;18.33;;;;;5.40;100335.00;;;;9675127;30;20622;-78
2021/04/10 23:00:57;;;;;;;22.43;15.43;;;;;5.40;100337.00;;;;9662136;30;20726;-78
2021/04/10 23:05:59;;;;;;;15.47;13.63;;;;;5.20;100355.00;;;;9696519;30;20199;-78
2021/04/10 23:11:01;;;;;;;14.73;12.83;;;;;5.10;100367.00;;;;9695759;30;20215;-78
2021/04/10 23:16:03;;;;;;;16.47;14.07;;;;;5.00;100365.00;;;;9668245;30;20224;-78
2021/04/10 23:21:05;;;;;;;16.87;13.57;;;;;5.00;100366.00;;;;9675028;30;20211;-78
2021/04/10 23:26:06;;;;;;;16.40;13.83;;;;;4.90;100374.00;;;;9675152;30;20224;-78
2021/04/10 23:31:07;;;;;;;17.67;13.27;;;;;4.80;100368.00;;;;9662463;30;20263;-78
2021/04/10 23:36:09;;;;;;;16.33;13.30;;;;;4.80;100368.00;;;;9645902;30;20323;-78
2021/04/10 23:41:10;;;;;;;19.90;15.37;;;;;4.80;100353.00;;;;9684750;30;20281;-78
2021/04/10 23:46:11;;;;;;;20.83;15.20;;;;;4.80;100369.00;;;;9682704;30;20216;-78
2021/04/10 23:51:13;;;;;;;16.23;13.67;;;;;4.70;100377.00;;;;9683095;30;20732;-78
2021/04/10 23:56:14;;;;;;;17.20;13.43;;;;;4.60;100375.00;;;;9698532;30;20235;-78
